Time;durP1;ratioP1;P1;durP2;ratioP2;P2;SDS_P1;SDS_P2;PMS_P1;PMS_P2;Temp;Humidity;BMP_temperature;BMP_pressure;BME280_temperature;BME280_humidity;BME280_pressure;Samples;Min_cycle;Max_cycle;Signal;HPM_P1;HPM_P2
2021/01/27 00:01:46;;;;;;;1999.90;999.90;;;;;;;;;;5077475;28;20028;-86
2021/01/27 00:04:12;;;;;;;1999.90;999.90;;;;;;;;;;5083783;28;20380;-85
2021/01/27 00:06:39;;;;;;;1999.90;999.90;;;;;;;;;;5085003;28;20032;-85
2021/01/27 00:09:04;;;;;;;1999.90;999.90;;;;;;;;;;5082815;28;20360;-84
2021/01/27 00:11:30;;;;;;;1999.90;999.90;;;;;;;;;;5078434;28;20027;-83
2021/01/27 00:13:55;;;;;;;1999.90;999.90;;;;;;;;;;5088981;28;20035;-84
2021/01/27 00:16:21;;;;;;;1999.90;999.90;;;;;;;;;;5087470;28;20025;-85
2021/01/27 00:18:46;;;;;;;1999.90;999.90;;;;;;;;;;5080476;28;20031;-84
2021/01/27 00:21:12;;;;;;;1999.90;999.90;;;;;;;;;;5083698;28;20117;-85
2021/01/27 00:23:37;;;;;;;1999.90;999.90;;;;;;;;;;5074410;28;20447;-84
2021/01/27 00:26:02;;;;;;;1999.90;999.90;;;;;;;;;;5075485;28;20571;-85
2021/01/27 00:28:28;;;;;;;1999.90;999.90;;;;;;;;;;5094843;28;20028;-84
2021/01/27 00:30:53;;;;;;;1999.90;999.90;;;;;;;;;;5105588;28;20024;-84
2021/01/27 00:33:19;;;;;;;1999.90;999.90;;;;;;;;;;5104938;28;20048;-84
2021/01/27 00:35:46;;;;;;;1999.90;999.90;;;;;;;;;;5110233;28;20081;-84
2021/01/27 00:38:22;;;;;;;1999.90;999.90;;;;;;;;;;5099684;28;20035;-84
2021/01/27 00:40:48;;;;;;;1999.90;999.90;;;;;;;;;;5102086;28;20065;-83
2021/01/27 00:43:14;;;;;;;1999.90;999.90;;;;;;;;;;5097919;28;20040;-85
2021/01/27 00:45:40;;;;;;;1999.90;999.90;;;;;;;;;;5101247;28;20032;-84
2021/01/27 00:48:06;;;;;;;1999.90;999.90;;;;;;;;;;5099386;28;20031;-85
2021/01/27 00:50:31;;;;;;;1999.90;999.90;;;;;;;;;;5102102;28;20032;-85
2021/01/27 00:52:58;;;;;;;1999.90;999.90;;;;;;;;;;5085144;28;20420;-84
2021/01/27 00:55:29;;;;;;;1999.90;999.90;;;;;;;;;;5106031;28;20088;-85
2021/01/27 00:57:57;;;;;;;1999.90;999.90;;;;;;;;;;5093692;28;20020;-84
2021/01/27 01:00:24;;;;;;;1999.90;999.90;;;;;;;;;;5075216;28;20047;-84
2021/01/27 01:02:50;;;;;;;1999.90;999.90;;;;;;;;;;5084492;28;20032;-84
2021/01/27 01:05:19;;;;;;;1999.90;999.90;;;;;;;;;;5085574;28;20483;-85
2021/01/27 01:07:47;;;;;;;1999.90;999.90;;;;;;;;;;5078948;28;20032;-85
2021/01/27 01:10:22;;;;;;;1999.90;999.90;;;;;;;;;;5076729;28;20707;-85
2021/01/27 01:12:48;;;;;;;1999.90;999.90;;;;;;;;;;5084199;28;20189;-84
2021/01/27 01:15:13;;;;;;;1999.90;999.90;;;;;;;;;;5075039;28;20099;-83
2021/01/27 01:17:39;;;;;;;1999.90;999.90;;;;;;;;;;5078878;28;20147;-83
2021/01/27 01:20:06;;;;;;;1999.90;999.90;;;;;;;;;;5083164;28;20016;-83
2021/01/27 01:22:32;;;;;;;1999.90;999.90;;;;;;;;;;5083046;28;20036;-85
2021/01/27 01:24:57;;;;;;;1999.90;999.90;;;;;;;;;;5076702;28;20040;-85
2021/01/27 01:27:22;;;;;;;1999.90;999.90;;;;;;;;;;5082693;28;20047;-84
2021/01/27 01:29:48;;;;;;;1999.90;999.90;;;;;;;;;;5078329;28;20476;-84
2021/01/27 01:32:14;;;;;;;1999.90;999.90;;;;;;;;;;5084132;28;20499;-84
2021/01/27 01:34:39;;;;;;;1999.90;999.90;;;;;;;;;;5078018;28;20017;-83
2021/01/27 01:37:04;;;;;;;1999.90;999.90;;;;;;;;;;5082190;28;20156;-83
2021/01/27 01:39:30;;;;;;;1999.90;999.90;;;;;;;;;;5078548;28;20420;-83
2021/01/27 01:41:55;;;;;;;1999.90;999.90;;;;;;;;;;5074296;28;20511;-83
2021/01/27 01:44:20;;;;;;;1999.90;999.90;;;;;;;;;;5071727;28;20496;-84
2021/01/27 01:46:46;;;;;;;295.27;267.15;;;;;;;;;;5077003;28;20110;-84
2021/01/27 01:49:12;;;;;;;293.90;265.77;;;;;;;;;;5085003;28;20407;-83
2021/01/27 01:51:48;;;;;;;286.80;259.88;;;;;;;;;;5084513;28;20035;-84
2021/01/27 01:54:18;;;;;;;292.60;266.52;;;;;;;;;;5079648;28;20448;-83
2021/01/27 01:56:46;;;;;;;291.75;266.40;;;;;;;;;;5076505;28;20050;-84
2021/01/27 01:59:11;;;;;;;290.40;265.88;;;;;;;;;;5096569;28;20046;-83
2021/01/27 02:01:39;;;;;;;318.58;292.10;;;;;;;;;;5094510;28;20040;-83
2021/01/27 02:04:05;;;;;;;316.92;290.83;;;;;;;;;;5097487;28;20029;-84
2021/01/27 02:06:30;;;;;;;304.50;278.65;;;;;;;;;;5094894;28;20033;-83
2021/01/27 02:08:57;;;;;;;303.05;277.83;;;;;;;;;;5095192;28;20054;-85
2021/01/27 02:11:38;;;;;;;298.40;273.77;;;;;;;;;;5100133;28;20059;-84
2021/01/27 02:14:24;;;;;;;298.25;273.48;;;;;;;;;;5105772;28;20028;-85
2021/01/27 02:16:55;;;;;;;283.88;260.27;;;;;;;;;;5105134;28;20044;-84
2021/01/27 02:19:40;;;;;;;281.05;258.35;;;;;;;;;;5094105;28;20349;-84
2021/01/27 02:22:24;;;;;;;288.00;263.90;;;;;;;;;;5084630;28;20080;-85
2021/01/27 02:25:08;;;;;;;287.10;263.33;;;;;;;;;;5078275;28;20546;-84
2021/01/27 02:27:57;;;;;;;297.15;272.15;;;;;;;;;;5089889;28;20042;-83
2021/01/27 02:30:41;;;;;;;304.08;279.25;;;;;;;;;;5080368;28;20503;-84
2021/01/27 02:33:07;;;;;;;284.38;260.75;;;;;;;;;;5081130;28;20040;-84
2021/01/27 02:35:35;;;;;;;297.75;273.00;;;;;;;;;;5080415;28;20012;-84
2021/01/27 02:38:07;;;;;;;292.88;268.50;;;;;;;;;;5086514;28;20032;-84
2021/01/27 02:40:48;;;;;;;296.90;272.38;;;;;;;;;;5087459;28;20086;-83
2021/01/27 02:43:17;;;;;;;287.10;262.90;;;;;;;;;;5086845;28;20040;-83
2021/01/27 02:45:46;;;;;;;278.23;255.02;;;;;;;;;;5084946;28;20036;-84
2021/01/27 02:48:13;;;;;;;286.88;263.42;;;;;;;;;;5087605;28;20032;-84
2021/01/27 02:51:02;;;;;;;289.55;264.30;;;;;;;;;;5087981;28;20016;-84
2021/01/27 02:53:29;;;;;;;283.60;259.20;;;;;;;;;;5083659;28;20048;-84
2021/01/27 02:55:54;;;;;;;284.17;260.17;;;;;;;;;;5078051;28;20020;-84
2021/01/27 02:58:23;;;;;;;284.45;260.25;;;;;;;;;;5081952;28;20074;-84
2021/01/27 03:00:52;;;;;;;293.48;268.48;;;;;;;;;;5083853;28;20047;-84
2021/01/27 03:03:39;;;;;;;285.08;260.65;;;;;;;;;;5082565;28;20075;-84
2021/01/27 03:06:06;;;;;;;284.15;260.10;;;;;;;;;;5075150;28;20056;-83
2021/01/27 03:08:38;;;;;;;290.20;265.55;;;;;;;;;;5079080;28;20369;-84
2021/01/27 03:11:15;;;;;;;306.77;280.38;;;;;;;;;;5081673;28;20032;-82
2021/01/27 03:13:43;;;;;;;311.58;284.50;;;;;;;;;;5090554;28;20038;-82
2021/01/27 03:16:12;;;;;;;305.35;278.33;;;;;;;;;;5088637;28;20128;-83
2021/01/27 03:18:40;;;;;;;306.27;279.65;;;;;;;;;;5096666;28;20044;-83
2021/01/27 03:21:08;;;;;;;308.75;281.60;;;;;;;;;;5106856;28;20040;-81
2021/01/27 03:23:39;;;;;;;293.60;268.00;;;;;;;;;;5110889;28;20047;-82
2021/01/27 03:26:08;;;;;;;285.73;260.15;;;;;;;;;;5110148;28;20032;-82
2021/01/27 03:28:40;;;;;;;275.15;251.00;;;;;;;;;;5108710;28;20046;-82
2021/01/27 03:31:05;;;;;;;273.15;248.95;;;;;;;;;;5094853;28;20788;-83
2021/01/27 03:33:49;;;;;;;282.23;257.48;;;;;;;;;;5080307;28;20016;-83
2021/01/27 03:36:15;;;;;;;277.75;252.65;;;;;;;;;;5080806;28;20036;-84
2021/01/27 03:38:49;;;;;;;262.02;237.93;;;;;;;;;;5083369;28;20017;-83
2021/01/27 03:41:29;;;;;;;260.40;237.10;;;;;;;;;;5083127;28;20036;-85
2021/01/27 03:44:06;;;;;;;250.20;228.20;;;;;;;;;;5083561;28;20399;-84
2021/01/27 03:46:38;;;;;;;246.65;225.05;;;;;;;;;;5084082;28;20032;-83
2021/01/27 03:49:11;;;;;;;246.20;224.20;;;;;;;;;;5081610;28;20373;-83
2021/01/27 03:51:47;;;;;;;243.52;221.10;;;;;;;;;;5084786;28;20100;-83
2021/01/27 03:54:15;;;;;;;257.40;235.10;;;;;;;;;;5091359;28;20024;-82
2021/01/27 03:56:44;;;;;;;251.20;229.32;;;;;;;;;;5089723;28;20012;-82
2021/01/27 03:59:12;;;;;;;246.15;224.40;;;;;;;;;;5093769;28;20047;-82
2021/01/27 04:01:52;;;;;;;241.90;220.38;;;;;;;;;;5092913;28;20093;-83
2021/01/27 04:04:17;;;;;;;248.40;226.88;;;;;;;;;;5093508;28;20040;-82
2021/01/27 04:06:43;;;;;;;247.13;225.63;;;;;;;;;;5098791;28;20042;-82
2021/01/27 04:09:09;;;;;;;246.10;224.43;;;;;;;;;;5097810;28;20024;-82
2021/01/27 04:11:34;;;;;;;237.55;216.73;;;;;;;;;;5095554;28;20516;-83
2021/01/27 04:14:00;;;;;;;239.65;219.00;;;;;;;;;;5091491;28;20029;-83
2021/01/27 04:16:25;;;;;;;238.68;217.55;;;;;;;;;;5098448;28;20096;-83
2021/01/27 04:18:51;;;;;;;231.23;210.82;;;;;;;;;;5092919;28;20033;-83
2021/01/27 04:21:16;;;;;;;227.50;207.73;;;;;;;;;;5090983;28;20048;-83
2021/01/27 04:23:42;;;;;;;228.35;208.38;;;;;;;;;;5093519;28;20053;-83
2021/01/27 04:26:07;;;;;;;228.52;208.70;;;;;;;;;;5099170;28;20024;-82
2021/01/27 04:28:33;;;;;;;229.25;209.27;;;;;;;;;;5098503;28;20048;-83
2021/01/27 04:30:58;;;;;;;228.93;208.95;;;;;;;;;;5095772;28;20027;-84
2021/01/27 04:33:25;;;;;;;229.45;209.80;;;;;;;;;;5102434;28;20031;-82
2021/01/27 04:35:51;;;;;;;230.50;210.20;;;;;;;;;;5093080;28;20028;-84
2021/01/27 04:38:16;;;;;;;230.82;210.32;;;;;;;;;;5091681;28;20078;-81
2021/01/27 04:40:43;;;;;;;249.65;227.38;;;;;;;;;;5090485;28;20090;-83
2021/01/27 04:43:29;;;;;;;233.70;212.63;;;;;;;;;;5086262;28;20044;-81
2021/01/27 04:46:04;;;;;;;233.88;213.13;;;;;;;;;;5091515;28;20637;-82
2021/01/27 04:48:34;;;;;;;234.15;212.43;;;;;;;;;;5089120;28;20048;-82
2021/01/27 04:51:02;;;;;;;232.45;212.00;;;;;;;;;;5097465;28;20086;-81
2021/01/27 04:53:42;;;;;;;237.73;216.73;;;;;;;;;;5101594;28;20012;-81
2021/01/27 04:56:18;;;;;;;233.45;212.40;;;;;;;;;;5098811;28;20043;-83
2021/01/27 04:59:00;;;;;;;240.63;219.02;;;;;;;;;;5101234;28;20044;-82
2021/01/27 05:01:44;;;;;;;245.57;223.65;;;;;;;;;;5086693;28;20040;-81
2021/01/27 05:04:22;;;;;;;242.45;221.05;;;;;;;;;;5083984;28;20074;-83
2021/01/27 05:06:49;;;;;;;238.82;217.30;;;;;;;;;;5085042;28;20064;-84
2021/01/27 05:09:23;;;;;;;237.55;215.65;;;;;;;;;;5084326;28;20107;-83
2021/01/27 05:11:51;;;;;;;258.15;235.40;;;;;;;;;;5075787;28;20047;-83
2021/01/27 05:14:17;;;;;;;246.98;223.85;;;;;;;;;;5084441;28;20031;-84
2021/01/27 05:16:44;;;;;;;253.68;230.35;;;;;;;;;;5085181;28;20036;-84
2021/01/27 05:19:11;;;;;;;245.15;222.23;;;;;;;;;;5084349;28;20032;-84
2021/01/27 05:21:39;;;;;;;239.90;217.55;;;;;;;;;;5089201;28;20393;-83
2021/01/27 05:24:05;;;;;;;245.30;222.93;;;;;;;;;;5088495;28;20047;-83
2021/01/27 05:26:40;;;;;;;241.30;218.85;;;;;;;;;;5084877;28;20036;-84
2021/01/27 05:29:13;;;;;;;236.55;214.25;;;;;;;;;;5079627;28;20048;-84
2021/01/27 05:31:57;;;;;;;253.18;229.63;;;;;;;;;;5080470;28;20032;-83
2021/01/27 05:34:26;;;;;;;252.35;228.30;;;;;;;;;;5083879;28;20381;-82
2021/01/27 05:36:51;;;;;;;250.82;227.23;;;;;;;;;;5081395;28;20031;-81
2021/01/27 05:39:17;;;;;;;248.77;225.63;;;;;;;;;;5082444;28;20037;-82
2021/01/27 05:41:42;;;;;;;242.25;219.88;;;;;;;;;;5083965;28;20012;-82
2021/01/27 05:44:14;;;;;;;248.50;225.65;;;;;;;;;;5082325;28;20039;-81
2021/01/27 05:46:40;;;;;;;252.13;229.38;;;;;;;;;;5082436;28;20039;-82
2021/01/27 05:49:24;;;;;;;257.83;234.07;;;;;;;;;;5079402;28;20126;-82
2021/01/27 05:51:50;;;;;;;275.52;249.55;;;;;;;;;;5072401;28;20119;-82
2021/01/27 05:54:22;;;;;;;275.38;249.50;;;;;;;;;;5081948;28;20654;-82
2021/01/27 05:56:48;;;;;;;274.75;248.75;;;;;;;;;;5082176;28;20036;-86
2021/01/27 05:59:40;;;;;;;261.70;235.98;;;;;;;;;;5079873;28;20020;-85
2021/01/27 06:02:06;;;;;;;272.92;246.23;;;;;;;;;;5074359;28;20142;-85
2021/01/27 06:04:32;;;;;;;262.00;235.25;;;;;;;;;;5082574;28;20027;-84
2021/01/27 06:07:02;;;;;;;252.60;227.07;;;;;;;;;;5076397;28;20484;-83
2021/01/27 06:09:29;;;;;;;251.52;225.65;;;;;;;;;;5078439;28;20132;-83
2021/01/27 06:12:03;;;;;;;263.08;237.73;;;;;;;;;;5075929;28;20487;-82
2021/01/27 06:14:28;;;;;;;257.13;232.60;;;;;;;;;;5074083;28;20089;-82
2021/01/27 06:16:54;;;;;;;238.15;215.13;;;;;;;;;;5074972;28;20028;-83
2021/01/27 06:19:24;;;;;;;235.13;212.32;;;;;;;;;;5080010;28;20063;-83
2021/01/27 06:22:08;;;;;;;240.77;218.68;;;;;;;;;;5072310;28;20056;-82
2021/01/27 06:24:33;;;;;;;227.40;206.10;;;;;;;;;;5073623;28;20059;-84
2021/01/27 06:27:07;;;;;;;230.13;209.02;;;;;;;;;;5079712;28;20434;-83
2021/01/27 06:29:48;;;;;;;236.43;214.45;;;;;;;;;;5081577;28;20039;-81
2021/01/27 06:32:26;;;;;;;226.15;205.32;;;;;;;;;;5075222;28;20028;-84
2021/01/27 06:34:59;;;;;;;239.25;216.27;;;;;;;;;;5073874;28;20480;-78
2021/01/27 06:37:43;;;;;;;238.70;216.43;;;;;;;;;;5083071;28;20042;-78
2021/01/27 06:40:27;;;;;;;230.98;210.45;;;;;;;;;;5077577;28;20610;-79
2021/01/27 06:43:13;;;;;;;217.68;197.65;;;;;;;;;;5077058;28;20040;-80
2021/01/27 06:45:48;;;;;;;219.23;199.32;;;;;;;;;;5069819;28;20036;-80
2021/01/27 06:48:16;;;;;;;220.85;200.23;;;;;;;;;;5078598;28;20032;-81
2021/01/27 06:50:50;;;;;;;215.82;196.18;;;;;;;;;;5081714;28;20030;-80
2021/01/27 06:53:25;;;;;;;224.55;203.23;;;;;;;;;;5078278;28;20047;-81
2021/01/27 07:29:48;;;;;;;221.35;200.60;;;;;;;;;;5082092;28;20085;-78
2021/01/27 07:32:26;;;;;;;220.18;199.73;;;;;;;;;;5078789;28;20024;-77
2021/01/27 07:34:55;;;;;;;210.75;191.13;;;;;;;;;;5078553;28;20085;-77
2021/01/27 07:37:38;;;;;;;214.57;195.07;;;;;;;;;;5070779;28;20032;-77
2021/01/27 07:40:04;;;;;;;212.88;193.65;;;;;;;;;;5078537;28;20111;-78
2021/01/27 07:42:33;;;;;;;213.23;193.73;;;;;;;;;;5070655;28;20135;-77
2021/01/27 07:44:59;;;;;;;207.48;188.68;;;;;;;;;;5076622;28;20033;-78
2021/01/27 07:47:34;;;;;;;202.82;184.82;;;;;;;;;;5075236;28;20394;-77
2021/01/27 07:50:00;;;;;;;199.30;181.20;;;;;;;;;;5077081;28;20033;-78
2021/01/27 07:52:25;;;;;;;206.55;188.02;;;;;;;;;;5076098;28;20365;-77
2021/01/27 07:54:56;;;;;;;203.70;185.10;;;;;;;;;;5077742;28;20016;-78
2021/01/27 07:57:44;;;;;;;199.88;181.80;;;;;;;;;;5076453;28;20038;-76
2021/01/27 08:00:18;;;;;;;186.95;170.45;;;;;;;;;;5072814;28;20093;-77
2021/01/27 08:02:56;;;;;;;191.43;174.88;;;;;;;;;;5081284;28;20063;-77
2021/01/27 08:05:22;;;;;;;204.35;186.80;;;;;;;;;;5076985;28;20068;-77
2021/01/27 08:07:57;;;;;;;198.73;181.70;;;;;;;;;;5078088;28;20043;-78
2021/01/27 08:10:24;;;;;;;200.13;183.05;;;;;;;;;;5077671;28;20035;-77
2021/01/27 08:12:51;;;;;;;201.30;184.23;;;;;;;;;;5077063;28;20499;-77
2021/01/27 08:15:26;;;;;;;214.50;196.02;;;;;;;;;;5077041;28;20174;-77
2021/01/27 08:17:51;;;;;;;214.73;195.90;;;;;;;;;;5077452;28;20516;-77
2021/01/27 08:20:31;;;;;;;205.68;187.63;;;;;;;;;;5076284;28;20131;-77
2021/01/27 08:23:04;;;;;;;204.27;185.73;;;;;;;;;;5075923;28;20040;-77
2021/01/27 08:25:48;;;;;;;221.40;202.68;;;;;;;;;;5078865;28;20077;-77
2021/01/27 08:28:17;;;;;;;210.05;191.48;;;;;;;;;;5077359;28;20776;-78
2021/01/27 08:30:42;;;;;;;189.20;172.43;;;;;;;;;;5079724;28;20531;-77
2021/01/27 08:33:31;;;;;;;186.48;169.60;;;;;;;;;;5082589;28;20056;-78
2021/01/27 08:35:59;;;;;;;179.68;164.30;;;;;;;;;;5078231;28;20412;-76
2021/01/27 08:38:26;;;;;;;178.77;163.63;;;;;;;;;;5072438;28;20485;-75
2021/01/27 08:40:51;;;;;;;191.52;175.75;;;;;;;;;;5073929;28;20055;-77
2021/01/27 08:43:17;;;;;;;183.50;168.48;;;;;;;;;;5083263;28;20102;-77
2021/01/27 08:45:46;;;;;;;184.82;169.18;;;;;;;;;;5077837;28;20032;-77
2021/01/27 08:48:12;;;;;;;182.77;167.50;;;;;;;;;;5079723;28;20017;-77
2021/01/27 08:50:43;;;;;;;188.57;172.80;;;;;;;;;;5080875;28;20025;-77
2021/01/27 08:53:16;;;;;;;192.77;176.15;;;;;;;;;;5085877;28;20059;-77
2021/01/27 08:55:44;;;;;;;195.98;179.55;;;;;;;;;;5075628;28;20031;-77
2021/01/27 08:58:18;;;;;;;202.30;184.90;;;;;;;;;;5081843;28;20103;-76
2021/01/27 09:00:44;;;;;;;219.77;200.00;;;;;;;;;;5081352;28;20097;-76
2021/01/27 09:03:29;;;;;;;228.02;206.65;;;;;;;;;;5078352;28;20028;-77
2021/01/27 09:05:56;;;;;;;228.20;206.33;;;;;;;;;;5073688;28;20442;-76
2021/01/27 09:08:22;;;;;;;231.98;210.32;;;;;;;;;;5079224;28;20277;-76
2021/01/27 09:10:52;;;;;;;226.90;204.68;;;;;;;;;;5082103;28;20383;-77
2021/01/27 09:13:27;;;;;;;223.85;202.20;;;;;;;;;;5074015;28;20068;-76
2021/01/27 09:15:54;;;;;;;230.52;208.38;;;;;;;;;;5075650;28;20020;-77
2021/01/27 09:18:20;;;;;;;222.30;200.20;;;;;;;;;;5077910;28;20440;-77
2021/01/27 09:20:45;;;;;;;243.43;219.20;;;;;;;;;;5078236;28;20039;-78
2021/01/27 09:23:16;;;;;;;249.90;226.02;;;;;;;;;;5085596;28;20505;-78
2021/01/27 09:25:43;;;;;;;257.77;233.13;;;;;;;;;;5073947;28;20533;-76
2021/01/27 09:28:09;;;;;;;262.58;236.95;;;;;;;;;;5076801;28;20387;-76
2021/01/27 09:30:35;;;;;;;265.52;238.85;;;;;;;;;;5075353;28;20051;-80
2021/01/27 09:33:14;;;;;;;268.52;241.60;;;;;;;;;;5079484;28;20032;-81
2021/01/27 09:35:42;;;;;;;274.35;247.13;;;;;;;;;;5079530;28;20037;-77
2021/01/27 09:38:13;;;;;;;273.35;246.20;;;;;;;;;;5084797;28;20032;-77
2021/01/27 09:40:40;;;;;;;274.55;247.20;;;;;;;;;;5079427;28;20503;-79
2021/01/27 09:43:07;;;;;;;274.55;247.30;;;;;;;;;;5081966;28;20028;-76
2021/01/27 09:45:34;;;;;;;277.60;249.30;;;;;;;;;;5079505;28;20043;-77
2021/01/27 09:48:00;;;;;;;271.77;244.73;;;;;;;;;;5079811;28;20023;-77
2021/01/27 09:50:27;;;;;;;282.85;255.00;;;;;;;;;;5081334;28;20032;-77
2021/01/27 09:52:56;;;;;;;286.00;257.67;;;;;;;;;;5079295;28;20021;-78
2021/01/27 09:55:23;;;;;;;289.35;260.85;;;;;;;;;;5087380;28;20031;-77
2021/01/27 09:57:50;;;;;;;290.90;262.63;;;;;;;;;;5078272;28;20082;-78
2021/01/27 10:00:23;;;;;;;280.88;254.20;;;;;;;;;;5076896;28;20024;-77
2021/01/27 10:02:49;;;;;;;271.13;244.95;;;;;;;;;;5078887;28;20051;-76
2021/01/27 10:05:33;;;;;;;270.65;245.32;;;;;;;;;;5076583;28;20016;-77
2021/01/27 10:08:00;;;;;;;268.48;242.88;;;;;;;;;;5078133;28;20484;-77
2021/01/27 10:10:25;;;;;;;263.52;238.93;;;;;;;;;;5076773;28;20024;-77
2021/01/27 10:12:55;;;;;;;262.35;237.55;;;;;;;;;;5073903;28;20020;-76
2021/01/27 10:15:20;;;;;;;264.67;239.35;;;;;;;;;;5076733;28;20029;-76
2021/01/27 10:17:46;;;;;;;273.85;247.38;;;;;;;;;;5079720;28;20047;-77
2021/01/27 10:20:21;;;;;;;273.50;245.82;;;;;;;;;;5074882;28;20020;-77
2021/01/27 10:23:00;;;;;;;273.40;247.35;;;;;;;;;;5075215;28;20040;-78
2021/01/27 10:25:39;;;;;;;267.90;242.20;;;;;;;;;;5072920;28;20123;-78
2021/01/27 10:28:11;;;;;;;267.20;241.60;;;;;;;;;;5076289;28;20020;-76
2021/01/27 10:30:42;;;;;;;261.63;235.48;;;;;;;;;;5073215;28;20051;-77
2021/01/27 10:33:26;;;;;;;267.70;241.15;;;;;;;;;;5071476;28;20028;-76
2021/01/27 10:35:52;;;;;;;265.80;240.13;;;;;;;;;;5076442;28;20084;-76
2021/01/27 10:38:21;;;;;;;259.38;234.20;;;;;;;;;;5074558;28;20535;-77
2021/01/27 10:41:06;;;;;;;270.60;244.90;;;;;;;;;;5077310;28;20265;-77
2021/01/27 10:43:32;;;;;;;272.27;246.15;;;;;;;;;;5077175;28;20051;-78
2021/01/27 10:45:57;;;;;;;268.35;241.77;;;;;;;;;;5081011;28;20476;-76
2021/01/27 10:48:23;;;;;;;269.70;242.70;;;;;;;;;;5079736;28;20102;-77
2021/01/27 10:50:54;;;;;;;274.50;248.05;;;;;;;;;;5081079;28;20021;-77
2021/01/27 10:53:20;;;;;;;264.13;238.73;;;;;;;;;;5074831;28;20035;-77
2021/01/27 10:55:55;;;;;;;274.38;247.93;;;;;;;;;;5077787;28;20009;-78
2021/01/27 10:58:20;;;;;;;278.77;251.27;;;;;;;;;;5077251;28;20036;-78
2021/01/27 11:00:46;;;;;;;283.20;254.43;;;;;;;;;;5077137;28;20036;-77
2021/01/27 11:03:17;;;;;;;286.20;257.30;;;;;;;;;;5078500;28;20029;-77
2021/01/27 11:05:43;;;;;;;284.88;254.40;;;;;;;;;;5086515;28;20061;-76
2021/01/27 11:08:28;;;;;;;288.20;258.08;;;;;;;;;;5078047;28;20063;-78
2021/01/27 11:10:55;;;;;;;282.20;253.25;;;;;;;;;;5069393;28;20033;-79
2021/01/27 11:13:21;;;;;;;282.60;253.18;;;;;;;;;;5078860;28;20027;-78
2021/01/27 11:15:47;;;;;;;299.67;267.27;;;;;;;;;;5081084;28;20100;-79
2021/01/27 11:18:12;;;;;;;313.67;270.08;;;;;;;;;;5074595;28;20334;-78
2021/01/27 11:20:37;;;;;;;340.40;277.30;;;;;;;;;;5080270;28;20119;-78
2021/01/27 11:23:03;;;;;;;349.15;281.25;;;;;;;;;;5080992;28;20037;-77
2021/01/27 11:25:29;;;;;;;358.98;280.55;;;;;;;;;;5075673;28;20048;-76
2021/01/27 11:27:55;;;;;;;344.38;276.80;;;;;;;;;;5086865;28;20436;-79
2021/01/27 11:30:22;;;;;;;362.13;278.58;;;;;;;;;;5086977;28;20049;-78
2021/01/27 11:32:48;;;;;;;349.30;277.42;;;;;;;;;;5092373;28;20111;-78
2021/01/27 11:35:14;;;;;;;355.67;280.83;;;;;;;;;;5099495;28;20024;-77
2021/01/27 11:37:40;;;;;;;361.35;280.25;;;;;;;;;;5098733;28;20089;-78
2021/01/27 11:40:06;;;;;;;375.85;288.38;;;;;;;;;;5081045;28;20032;-78
2021/01/27 11:42:31;;;;;;;379.77;291.40;;;;;;;;;;5081653;28;20025;-79
2021/01/27 11:44:57;;;;;;;388.42;292.75;;;;;;;;;;5084030;28;20047;-80
2021/01/27 11:47:22;;;;;;;339.67;279.83;;;;;;;;;;5093845;28;20024;-80
2021/01/27 11:49:49;;;;;;;351.05;288.42;;;;;;;;;;5078597;28;20492;-80
2021/01/27 11:52:15;;;;;;;361.60;287.70;;;;;;;;;;5081615;28;20392;-80
2021/01/27 11:54:41;;;;;;;344.80;286.50;;;;;;;;;;5079963;28;20056;-81
2021/01/27 11:57:06;;;;;;;368.15;292.52;;;;;;;;;;5086540;28;20627;-79
2021/01/27 11:59:32;;;;;;;355.30;285.08;;;;;;;;;;5087563;28;20048;-79
2021/01/27 12:01:58;;;;;;;351.85;285.83;;;;;;;;;;5076839;28;20162;-80
2021/01/27 12:04:24;;;;;;;357.23;282.63;;;;;;;;;;5084881;28;20511;-81
2021/01/27 12:06:49;;;;;;;375.77;285.17;;;;;;;;;;5083281;28;20024;-81
2021/01/27 12:09:15;;;;;;;355.05;283.15;;;;;;;;;;5083540;28;20043;-80
2021/01/27 12:11:40;;;;;;;385.63;288.30;;;;;;;;;;5088060;28;20471;-80
2021/01/27 12:14:06;;;;;;;344.63;278.33;;;;;;;;;;5081404;28;20484;-79
2021/01/27 12:16:31;;;;;;;381.10;287.08;;;;;;;;;;5083510;28;20050;-80
2021/01/27 12:18:56;;;;;;;385.77;297.10;;;;;;;;;;5078626;28;20024;-79
2021/01/27 12:21:22;;;;;;;372.70;287.30;;;;;;;;;;5086676;28;20508;-79
2021/01/27 12:23:47;;;;;;;354.48;291.27;;;;;;;;;;5078802;28;20404;-79
2021/01/27 12:26:12;;;;;;;395.13;293.60;;;;;;;;;;5095739;28;20009;-79
2021/01/27 12:28:38;;;;;;;358.20;292.52;;;;;;;;;;5099930;28;20044;-81
2021/01/27 12:31:04;;;;;;;388.75;286.20;;;;;;;;;;5092793;28;20044;-78
2021/01/27 12:33:29;;;;;;;399.77;297.42;;;;;;;;;;5089952;28;20028;-78
2021/01/27 12:35:55;;;;;;;357.33;293.90;;;;;;;;;;5085835;28;20085;-78
2021/01/27 12:38:21;;;;;;;384.00;289.90;;;;;;;;;;5085149;28;20420;-79
2021/01/27 12:40:47;;;;;;;369.83;286.15;;;;;;;;;;5088596;28;20262;-79
2021/01/27 12:43:13;;;;;;;367.92;285.00;;;;;;;;;;5080894;28;20037;-78
2021/01/27 12:45:38;;;;;;;361.58;282.67;;;;;;;;;;5087205;28;20021;-78
2021/01/27 12:48:04;;;;;;;350.20;288.67;;;;;;;;;;5082887;28;20050;-79
2021/01/27 12:50:29;;;;;;;356.98;285.75;;;;;;;;;;5080672;28;20024;-79
2021/01/27 12:52:55;;;;;;;377.20;285.40;;;;;;;;;;5080452;28;20020;-77
2021/01/27 12:55:21;;;;;;;341.67;285.38;;;;;;;;;;5083705;28;20052;-78
2021/01/27 12:57:47;;;;;;;338.80;285.52;;;;;;;;;;5083400;28;20097;-77
2021/01/27 13:00:22;;;;;;;361.17;289.17;;;;;;;;;;5078829;28;20101;-78
2021/01/27 13:02:48;;;;;;;345.58;292.48;;;;;;;;;;5080109;28;20051;-79
2021/01/27 13:05:14;;;;;;;366.60;293.65;;;;;;;;;;5087013;28;20021;-79
2021/01/27 13:07:40;;;;;;;355.08;290.63;;;;;;;;;;5090562;28;20058;-80
2021/01/27 13:10:08;;;;;;;342.58;285.45;;;;;;;;;;5099616;28;20020;-80
2021/01/27 13:12:34;;;;;;;358.42;294.90;;;;;;;;;;5095363;28;20029;-78
2021/01/27 13:14:59;;;;;;;351.10;293.73;;;;;;;;;;5098081;28;20080;-79
2021/01/27 13:17:25;;;;;;;342.65;292.83;;;;;;;;;;5093535;28;20474;-80
2021/01/27 13:19:51;;;;;;;344.25;294.50;;;;;;;;;;5095130;28;20028;-79
2021/01/27 13:22:16;;;;;;;335.50;289.50;;;;;;;;;;5103270;28;20041;-81
2021/01/27 13:24:42;;;;;;;324.40;281.13;;;;;;;;;;5102862;28;20080;-79
2021/01/27 13:27:08;;;;;;;324.63;289.70;;;;;;;;;;5092312;28;20102;-80
2021/01/27 13:29:34;;;;;;;318.85;285.23;;;;;;;;;;5075256;28;20377;-81
2021/01/27 13:31:59;;;;;;;322.48;287.45;;;;;;;;;;5071967;28;20025;-81
2021/01/27 13:34:24;;;;;;;326.33;288.75;;;;;;;;;;5084157;28;20501;-80
2021/01/27 13:36:50;;;;;;;330.63;284.50;;;;;;;;;;5080813;28;20028;-81
2021/01/27 13:39:17;;;;;;;337.92;285.17;;;;;;;;;;5076478;28;20062;-81
2021/01/27 13:41:42;;;;;;;319.85;284.75;;;;;;;;;;5083353;28;20462;-81
2021/01/27 13:44:08;;;;;;;329.90;293.75;;;;;;;;;;5072911;28;20107;-80
2021/01/27 13:46:33;;;;;;;316.83;281.98;;;;;;;;;;5078341;28;20032;-80
2021/01/27 13:48:59;;;;;;;325.60;290.30;;;;;;;;;;5085001;28;20104;-80
2021/01/27 13:51:24;;;;;;;331.58;287.90;;;;;;;;;;5079467;28;20020;-80
2021/01/27 13:53:49;;;;;;;327.23;283.23;;;;;;;;;;5075799;28;20432;-80
2021/01/27 13:56:15;;;;;;;325.98;289.65;;;;;;;;;;5083366;28;20165;-80
2021/01/27 13:58:40;;;;;;;322.02;285.65;;;;;;;;;;5076339;28;20057;-80
2021/01/27 14:01:06;;;;;;;328.92;282.13;;;;;;;;;;5082140;28;20074;-81
2021/01/27 14:03:31;;;;;;;321.63;285.83;;;;;;;;;;5074844;28;20525;-79
2021/01/27 14:05:56;;;;;;;335.58;290.17;;;;;;;;;;5076732;28;20039;-80
2021/01/27 14:08:22;;;;;;;344.33;291.52;;;;;;;;;;5074103;28;20408;-78
2021/01/27 14:10:47;;;;;;;337.10;288.00;;;;;;;;;;5069623;28;20447;-79
2021/01/27 14:13:12;;;;;;;329.02;293.60;;;;;;;;;;5084106;28;20016;-79
2021/01/27 14:15:38;;;;;;;334.67;297.80;;;;;;;;;;5085260;28;20035;-79
2021/01/27 14:18:05;;;;;;;331.45;289.40;;;;;;;;;;5078610;28;20028;-78
2021/01/27 14:20:32;;;;;;;331.83;295.77;;;;;;;;;;5083706;28;20027;-78
2021/01/27 14:22:58;;;;;;;339.48;302.15;;;;;;;;;;5072295;28;20048;-78
2021/01/27 14:25:25;;;;;;;339.58;302.88;;;;;;;;;;5074010;28;20031;-78
2021/01/27 14:27:51;;;;;;;329.48;289.75;;;;;;;;;;5082170;28;20090;-79
2021/01/27 14:30:21;;;;;;;336.00;299.08;;;;;;;;;;5080556;28;20205;-80
2021/01/27 14:32:48;;;;;;;329.10;293.88;;;;;;;;;;5080263;28;20052;-79
2021/01/27 14:35:13;;;;;;;323.45;287.85;;;;;;;;;;5076887;28;20040;-78
2021/01/27 14:37:39;;;;;;;331.92;293.48;;;;;;;;;;5077489;28;20032;-79